sensor_id;sensor_type;location;lat;lon;timestamp;pressure;altitude;pressure_sealevel;temperature;humidity
57594;BME280;43423;46.510;6.686;2023-09-18T00:00:25;95965.53;;;20.25;89.23
57594;BME280;43423;46.510;6.686;2023-09-18T00:03:11;95956.22;;;20.15;89.30
57594;BME280;43423;46.510;6.686;2023-09-18T00:05:36;95965.72;;;20.27;88.44
57594;BME280;43423;46.510;6.686;2023-09-18T00:08:02;95977.31;;;20.47;88.24
57594;BME280;43423;46.510;6.686;2023-09-18T00:10:28;95974.16;;;20.58;87.84
57594;BME280;43423;46.510;6.686;2023-09-18T00:12:57;95987.75;;;20.54;87.44
57594;BME280;43423;46.510;6.686;2023-09-18T00:15:23;95989.78;;;20.61;87.66
57594;BME280;43423;46.510;6.686;2023-09-18T00:17:49;95974.56;;;20.62;87.37
57594;BME280;43423;46.510;6.686;2023-09-18T00:20:15;95978.25;;;20.49;86.82
57594;BME280;43423;46.510;6.686;2023-09-18T00:22:43;95975.25;;;20.40;86.22
57594;BME280;43423;46.510;6.686;2023-09-18T00:25:08;95982.31;;;20.41;84.39
57594;BME280;43423;46.510;6.686;2023-09-18T00:27:34;95981.00;;;20.42;85.19
57594;BME280;43423;46.510;6.686;2023-09-18T00:30:03;95991.66;;;20.51;84.63
57594;BME280;43423;46.510;6.686;2023-09-18T00:32:29;95991.97;;;20.32;84.23
57594;BME280;43423;46.510;6.686;2023-09-18T00:34:54;96004.84;;;20.43;83.58
57594;BME280;43423;46.510;6.686;2023-09-18T00:37:20;96011.78;;;20.65;82.35
57594;BME280;43423;46.510;6.686;2023-09-18T00:39:46;96022.19;;;20.49;80.99
57594;BME280;43423;46.510;6.686;2023-09-18T00:42:11;96026.88;;;20.69;79.76
57594;BME280;43423;46.510;6.686;2023-09-18T00:44:43;96055.78;;;20.95;78.05
57594;BME280;43423;46.510;6.686;2023-09-18T00:47:10;96068.44;;;20.80;78.14
57594;BME280;43423;46.510;6.686;2023-09-18T00:49:39;96067.13;;;20.89;77.14
57594;BME280;43423;46.510;6.686;2023-09-18T00:52:07;96066.56;;;20.75;78.73
57594;BME280;43423;46.510;6.686;2023-09-18T00:54:34;96065.59;;;20.65;80.15
57594;BME280;43423;46.510;6.686;2023-09-18T00:57:01;96070.81;;;20.61;80.96
57594;BME280;43423;46.510;6.686;2023-09-18T00:59:27;96053.88;;;20.74;80.87
57594;BME280;43423;46.510;6.686;2023-09-18T01:01:52;96037.88;;;20.82;80.12
57594;BME280;43423;46.510;6.686;2023-09-18T01:04:19;96031.56;;;20.97;79.56
57594;BME280;43423;46.510;6.686;2023-09-18T01:06:45;96039.53;;;20.93;80.07
57594;BME280;43423;46.510;6.686;2023-09-18T01:09:19;96048.88;;;20.88;82.41
57594;BME280;43423;46.510;6.686;2023-09-18T01:14:31;96087.53;;;20.53;88.05
57594;BME280;43423;46.510;6.686;2023-09-18T01:17:00;96091.81;;;20.47;90.17
57594;BME280;43423;46.510;6.686;2023-09-18T01:19:36;96105.00;;;20.39;91.26
57594;BME280;43423;46.510;6.686;2023-09-18T01:22:06;96102.50;;;20.27;93.12
57594;BME280;43423;46.510;6.686;2023-09-18T01:24:33;96104.63;;;20.42;91.35
57594;BME280;43423;46.510;6.686;2023-09-18T01:27:00;96111.16;;;20.45;93.18
57594;BME280;43423;46.510;6.686;2023-09-18T01:29:26;96114.38;;;20.20;93.03
57594;BME280;43423;46.510;6.686;2023-09-18T01:31:52;96107.56;;;20.36;92.32
57594;BME280;43423;46.510;6.686;2023-09-18T01:34:31;96096.63;;;20.39;94.52
57594;BME280;43423;46.510;6.686;2023-09-18T01:36:59;96091.69;;;20.16;96.56
57594;BME280;43423;46.510;6.686;2023-09-18T01:39:27;96087.59;;;20.17;97.03
57594;BME280;43423;46.510;6.686;2023-09-18T01:41:59;96082.91;;;20.56;92.91
57594;BME280;43423;46.510;6.686;2023-09-18T01:44:25;96073.06;;;20.70;91.54
57594;BME280;43423;46.510;6.686;2023-09-18T01:46:52;96080.31;;;20.66;92.78
57594;BME280;43423;46.510;6.686;2023-09-18T01:49:35;96071.78;;;20.71;91.59
57594;BME280;43423;46.510;6.686;2023-09-18T01:52:05;96049.41;;;20.71;91.19
57594;BME280;43423;46.510;6.686;2023-09-18T01:54:32;96046.75;;;20.50;93.17
57594;BME280;43423;46.510;6.686;2023-09-18T01:56:58;96041.88;;;20.43;94.22
57594;BME280;43423;46.510;6.686;2023-09-18T01:59:24;96060.16;;;20.44;91.65
57594;BME280;43423;46.510;6.686;2023-09-18T02:01:51;96053.59;;;20.42;92.64
57594;BME280;43423;46.510;6.686;2023-09-18T02:04:17;96041.84;;;20.35;91.97
57594;BME280;43423;46.510;6.686;2023-09-18T02:06:43;96035.34;;;20.33;93.09
57594;BME280;43423;46.510;6.686;2023-09-18T02:09:09;96036.84;;;20.34;93.48
57594;BME280;43423;46.510;6.686;2023-09-18T02:11:37;96059.19;;;20.42;93.06
57594;BME280;43423;46.510;6.686;2023-09-18T02:14:04;96068.69;;;20.39;93.66
57594;BME280;43423;46.510;6.686;2023-09-18T02:16:38;96059.81;;;20.04;96.73
57594;BME280;43423;46.510;6.686;2023-09-18T02:19:06;96066.34;;;20.06;97.28
57594;BME280;43423;46.510;6.686;2023-09-18T02:21:32;96065.56;;;20.06;96.85
57594;BME280;43423;46.510;6.686;2023-09-18T02:23:57;96071.03;;;20.19;96.33
57594;BME280;43423;46.510;6.686;2023-09-18T02:26:24;96077.31;;;20.56;89.34
57594;BME280;43423;46.510;6.686;2023-09-18T02:28:52;96058.00;;;20.22;91.61
57594;BME280;43423;46.510;6.686;2023-09-18T02:31:19;96070.09;;;20.17;92.89
57594;BME280;43423;46.510;6.686;2023-09-18T02:33:44;96056.44;;;20.05;93.53
57594;BME280;43423;46.510;6.686;2023-09-18T02:36:11;96044.16;;;20.01;94.96
57594;BME280;43423;46.510;6.686;2023-09-18T02:38:36;96042.28;;;19.96;96.77
57594;BME280;43423;46.510;6.686;2023-09-18T02:41:02;96036.19;;;20.05;94.61
57594;BME280;43423;46.510;6.686;2023-09-18T02:43:27;96024.84;;;20.11;91.73
57594;BME280;43423;46.510;6.686;2023-09-18T02:45:53;96019.16;;;20.31;89.98
57594;BME280;43423;46.510;6.686;2023-09-18T02:48:19;96015.81;;;20.41;88.69
57594;BME280;43423;46.510;6.686;2023-09-18T02:50:45;96024.94;;;20.41;89.53
57594;BME280;43423;46.510;6.686;2023-09-18T02:53:20;96022.31;;;20.35;89.52
57594;BME280;43423;46.510;6.686;2023-09-18T02:55:49;96013.19;;;20.35;89.85
57594;BME280;43423;46.510;6.686;2023-09-18T02:58:14;96009.66;;;20.34;89.42
57594;BME280;43423;46.510;6.686;2023-09-18T03:00:42;96004.66;;;20.41;87.96
57594;BME280;43423;46.510;6.686;2023-09-18T03:03:11;95992.91;;;20.34;87.96
57594;BME280;43423;46.510;6.686;2023-09-18T03:05:39;96008.41;;;20.51;87.71
57594;BME280;43423;46.510;6.686;2023-09-18T03:08:05;96017.31;;;20.42;89.59
57594;BME280;43423;46.510;6.686;2023-09-18T03:10:34;96013.44;;;20.60;87.14
57594;BME280;43423;46.510;6.686;2023-09-18T03:13:03;96012.91;;;20.69;86.77
57594;BME280;43423;46.510;6.686;2023-09-18T03:15:29;96014.41;;;20.70;86.20
57594;BME280;43423;46.510;6.686;2023-09-18T03:17:56;96020.19;;;20.72;85.40
57594;BME280;43423;46.510;6.686;2023-09-18T03:20:23;96034.31;;;20.59;86.12
57594;BME280;43423;46.510;6.686;2023-09-18T03:22:50;96013.09;;;20.56;85.89
57594;BME280;43423;46.510;6.686;2023-09-18T03:25:16;95995.75;;;20.50;86.36
57594;BME280;43423;46.510;6.686;2023-09-18T03:27:41;95990.34;;;20.59;85.80
57594;BME280;43423;46.510;6.686;2023-09-18T03:30:07;95986.06;;;20.51;86.96
57594;BME280;43423;46.510;6.686;2023-09-18T03:32:33;95989.38;;;20.42;88.55
57594;BME280;43423;46.510;6.686;2023-09-18T03:34:59;95996.69;;;20.60;87.25
57594;BME280;43423;46.510;6.686;2023-09-18T03:37:25;95997.19;;;20.35;89.25
57594;BME280;43423;46.510;6.686;2023-09-18T03:39:50;95989.75;;;20.38;90.01
57594;BME280;43423;46.510;6.686;2023-09-18T03:42:16;95982.47;;;20.27;89.49
57594;BME280;43423;46.510;6.686;2023-09-18T03:44:41;95983.38;;;20.30;91.26
57594;BME280;43423;46.510;6.686;2023-09-18T03:47:07;95994.22;;;20.41;91.36
57594;BME280;43423;46.510;6.686;2023-09-18T03:49:32;95995.75;;;20.50;92.55
57594;BME280;43423;46.510;6.686;2023-09-18T03:51:58;95986.09;;;20.58;89.87
57594;BME280;43423;46.510;6.686;2023-09-18T03:54:24;95987.94;;;20.48;90.11
57594;BME280;43423;46.510;6.686;2023-09-18T03:56:49;95992.31;;;20.28;93.04
57594;BME280;43423;46.510;6.686;2023-09-18T03:59:15;96013.50;;;20.08;95.51
57594;BME280;43423;46.510;6.686;2023-09-18T04:01:40;96017.66;;;20.23;95.80
57594;BME280;43423;46.510;6.686;2023-09-18T04:04:06;96003.50;;;20.28;97.31
57594;BME280;43423;46.510;6.686;2023-09-18T04:06:41;96022.47;;;20.15;98.18
57594;BME280;43423;46.510;6.686;2023-09-18T04:09:07;95995.66;;;20.19;99.70
57594;BME280;43423;46.510;6.686;2023-09-18T04:11:33;96007.22;;;20.23;99.91
57594;BME280;43423;46.510;6.686;2023-09-18T04:14:00;96027.03;;;19.97;100.00
57594;BME280;43423;46.510;6.686;2023-09-18T04:16:25;96009.72;;;19.91;100.00
57594;BME280;43423;46.510;6.686;2023-09-18T04:18:53;96013.34;;;19.70;100.00
57594;BME280;43423;46.510;6.686;2023-09-18T04:21:19;96008.03;;;19.88;100.00
57594;BME280;43423;46.510;6.686;2023-09-18T04:23:47;96011.56;;;19.88;100.00
57594;BME280;43423;46.510;6.686;2023-09-18T04:26:13;96034.28;;;19.92;100.00
57594;BME280;43423;46.510;6.686;2023-09-18T04:28:41;96049.56;;;19.99;100.00
57594;BME280;43423;46.510;6.686;2023-09-18T04:31:07;96043.63;;;20.02;100.00
57594;BME280;43423;46.510;6.686;2023-09-18T04:33:33;96053.19;;;20.22;100.00
57594;BME280;43423;46.510;6.686;2023-09-18T04:35:58;96055.16;;;19.99;100.00
57594;BME280;43423;46.510;6.686;2023-09-18T04:38:24;96066.63;;;19.88;100.00
57594;BME280;43423;46.510;6.686;2023-09-18T04:40:57;96082.66;;;19.95;100.00
57594;BME280;43423;46.510;6.686;2023-09-18T04:43:23;96079.34;;;20.04;100.00
57594;BME280;43423;46.510;6.686;2023-09-18T04:45:50;96068.38;;;19.70;100.00
57594;BME280;43423;46.510;6.686;2023-09-18T04:48:16;96057.94;;;19.63;100.00
57594;BME280;43423;46.510;6.686;2023-09-18T04:50:42;96057.38;;;19.64;100.00
57594;BME280;43423;46.510;6.686;2023-09-18T04:53:09;96057.88;;;19.84;100.00
57594;BME280;43423;46.510;6.686;2023-09-18T04:55:34;96059.44;;;19.43;100.00
57594;BME280;43423;46.510;6.686;2023-09-18T04:58:00;96081.16;;;19.37;100.00
57594;BME280;43423;46.510;6.686;2023-09-18T05:00:26;96066.50;;;19.15;100.00
57594;BME280;43423;46.510;6.686;2023-09-18T05:02:52;96065.94;;;19.38;98.79
57594;BME280;43423;46.510;6.686;2023-09-18T05:05:18;96067.00;;;19.35;98.55
57594;BME280;43423;46.510;6.686;2023-09-18T05:07:44;96052.53;;;19.36;99.33
57594;BME280;43423;46.510;6.686;2023-09-18T05:10:10;96087.25;;;19.07;100.00
57594;BME280;43423;46.510;6.686;2023-09-18T05:12:38;96092.63;;;19.33;97.89
57594;BME280;43423;46.510;6.686;2023-09-18T05:15:04;96080.34;;;19.29;99.03
57594;BME280;43423;46.510;6.686;2023-09-18T05:17:44;96086.94;;;19.18;95.02
57594;BME280;43423;46.510;6.686;2023-09-18T05:20:12;96075.59;;;18.95;96.16
57594;BME280;43423;46.510;6.686;2023-09-18T05:22:42;96062.75;;;18.71;100.00
57594;BME280;43423;46.510;6.686;2023-09-18T05:25:09;96051.69;;;18.79;100.00
57594;BME280;43423;46.510;6.686;2023-09-18T05:27:36;96038.91;;;18.62;100.00
57594;BME280;43423;46.510;6.686;2023-09-18T05:30:18;96047.06;;;18.60;100.00
57594;BME280;43423;46.510;6.686;2023-09-18T05:32:46;96054.47;;;18.58;100.00
57594;BME280;43423;46.510;6.686;2023-09-18T05:35:13;96060.03;;;18.58;100.00
57594;BME280;43423;46.510;6.686;2023-09-18T05:37:40;96065.03;;;18.73;100.00
57594;BME280;43423;46.510;6.686;2023-09-18T05:40:08;96065.63;;;18.79;97.35
57594;BME280;43423;46.510;6.686;2023-09-18T05:42:39;96090.66;;;18.58;99.00
57594;BME280;43423;46.510;6.686;2023-09-18T05:45:05;96127.78;;;18.74;99.67
57594;BME280;43423;46.510;6.686;2023-09-18T05:47:32;96156.00;;;18.57;100.00
57594;BME280;43423;46.510;6.686;2023-09-18T05:49:58;96178.31;;;18.78;98.76
57594;BME280;43423;46.510;6.686;2023-09-18T05:52:24;96211.44;;;18.55;96.83
57594;BME280;43423;46.510;6.686;2023-09-18T05:54:50;96218.19;;;18.59;99.17
57594;BME280;43423;46.510;6.686;2023-09-18T05:57:17;96209.94;;;18.54;100.00
57594;BME280;43423;46.510;6.686;2023-09-18T05:59:43;96194.00;;;18.54;100.00
57594;BME280;43423;46.510;6.686;2023-09-18T06:02:12;96180.06;;;18.67;98.38
57594;BME280;43423;46.510;6.686;2023-09-18T06:04:37;96160.88;;;18.77;97.97
57594;BME280;43423;46.510;6.686;2023-09-18T06:07:03;96177.09;;;18.39;99.29
57594;BME280;43423;46.510;6.686;2023-09-18T06:09:29;96200.34;;;18.41;100.00
57594;BME280;43423;46.510;6.686;2023-09-18T06:11:55;96185.09;;;18.56;100.00
57594;BME280;43423;46.510;6.686;2023-09-18T06:14:20;96194.88;;;18.23;100.00
57594;BME280;43423;46.510;6.686;2023-09-18T06:16:46;96200.03;;;18.05;100.00
57594;BME280;43423;46.510;6.686;2023-09-18T06:19:12;96202.94;;;18.26;100.00
57594;BME280;43423;46.510;6.686;2023-09-18T06:21:37;96224.53;;;18.20;100.00
57594;BME280;43423;46.510;6.686;2023-09-18T06:24:03;96209.66;;;18.31;100.00
57594;BME280;43423;46.510;6.686;2023-09-18T06:26:29;96178.72;;;18.08;100.00
57594;BME280;43423;46.510;6.686;2023-09-18T06:28:54;96163.66;;;17.90;100.00
57594;BME280;43423;46.510;6.686;2023-09-18T06:31:20;96175.00;;;17.79;100.00
57594;BME280;43423;46.510;6.686;2023-09-18T06:33:46;96170.06;;;17.85;100.00
57594;BME280;43423;46.510;6.686;2023-09-18T06:36:13;96177.50;;;17.64;100.00
57594;BME280;43423;46.510;6.686;2023-09-18T06:38:38;96179.44;;;17.55;100.00
57594;BME280;43423;46.510;6.686;2023-09-18T06:41:04;96185.28;;;17.39;100.00
57594;BME280;43423;46.510;6.686;2023-09-18T06:43:30;96179.06;;;17.33;100.00
57594;BME280;43423;46.510;6.686;2023-09-18T06:45:55;96173.66;;;17.67;100.00
57594;BME280;43423;46.510;6.686;2023-09-18T06:48:24;96178.41;;;18.25;100.00
57594;BME280;43423;46.510;6.686;2023-09-18T06:50:49;96179.13;;;18.52;100.00
57594;BME280;43423;46.510;6.686;2023-09-18T06:53:15;96158.59;;;18.41;99.95
57594;BME280;43423;46.510;6.686;2023-09-18T06:55:40;96184.34;;;18.55;100.00
57594;BME280;43423;46.510;6.686;2023-09-18T06:58:06;96207.47;;;18.63;99.94
57594;BME280;43423;46.510;6.686;2023-09-18T07:00:32;96235.22;;;18.82;97.00
57594;BME280;43423;46.510;6.686;2023-09-18T07:02:57;96227.09;;;18.31;95.61
57594;BME280;43423;46.510;6.686;2023-09-18T07:05:23;96217.59;;;18.27;96.97
57594;BME280;43423;46.510;6.686;2023-09-18T07:07:49;96192.34;;;18.25;100.00
57594;BME280;43423;46.510;6.686;2023-09-18T07:10:14;96172.53;;;18.15;100.00
57594;BME280;43423;46.510;6.686;2023-09-18T07:12:40;96186.84;;;18.46;100.00
57594;BME280;43423;46.510;6.686;2023-09-18T07:15:06;96226.44;;;18.38;100.00
57594;BME280;43423;46.510;6.686;2023-09-18T07:17:33;96263.38;;;17.99;100.00
57594;BME280;43423;46.510;6.686;2023-09-18T07:19:58;96255.66;;;17.79;100.00
57594;BME280;43423;46.510;6.686;2023-09-18T07:22:24;96243.03;;;17.91;100.00
57594;BME280;43423;46.510;6.686;2023-09-18T07:24:50;96262.31;;;18.55;100.00
57594;BME280;43423;46.510;6.686;2023-09-18T07:27:15;96261.47;;;18.74;100.00
57594;BME280;43423;46.510;6.686;2023-09-18T07:29:41;96251.63;;;18.20;100.00
57594;BME280;43423;46.510;6.686;2023-09-18T07:32:07;96242.69;;;17.81;100.00
57594;BME280;43423;46.510;6.686;2023-09-18T07:34:33;96261.31;;;17.54;100.00
57594;BME280;43423;46.510;6.686;2023-09-18T07:36:58;96265.34;;;17.40;100.00
57594;BME280;43423;46.510;6.686;2023-09-18T07:39:24;96264.13;;;17.36;100.00
57594;BME280;43423;46.510;6.686;2023-09-18T07:41:49;96286.81;;;17.21;100.00
57594;BME280;43423;46.510;6.686;2023-09-18T07:44:19;96307.41;;;17.31;100.00
57594;BME280;43423;46.510;6.686;2023-09-18T07:46:46;96300.69;;;17.58;100.00
57594;BME280;43423;46.510;6.686;2023-09-18T07:49:11;96300.84;;;17.47;100.00
57594;BME280;43423;46.510;6.686;2023-09-18T07:51:37;96294.72;;;17.87;100.00
57594;BME280;43423;46.510;6.686;2023-09-18T07:54:03;96285.38;;;17.84;100.00
57594;BME280;43423;46.510;6.686;2023-09-18T07:56:29;96255.03;;;17.99;100.00
57594;BME280;43423;46.510;6.686;2023-09-18T07:58:59;96291.00;;;18.10;100.00
57594;BME280;43423;46.510;6.686;2023-09-18T08:01:25;96331.16;;;17.83;100.00
57594;BME280;43423;46.510;6.686;2023-09-18T08:03:50;96314.38;;;17.89;100.00
57594;BME280;43423;46.510;6.686;2023-09-18T08:06:16;96332.91;;;17.86;100.00
57594;BME280;43423;46.510;6.686;2023-09-18T08:08:44;96336.28;;;18.11;100.00
57594;BME280;43423;46.510;6.686;2023-09-18T08:11:10;96330.78;;;18.05;100.00
57594;BME280;43423;46.510;6.686;2023-09-18T08:13:36;96338.13;;;17.90;100.00
57594;BME280;43423;46.510;6.686;2023-09-18T08:16:04;96330.66;;;17.66;100.00
57594;BME280;43423;46.510;6.686;2023-09-18T08:18:29;96329.50;;;18.06;100.00
57594;BME280;43423;46.510;6.686;2023-09-18T08:20:55;96325.25;;;18.19;100.00
57594;BME280;43423;46.510;6.686;2023-09-18T08:23:23;96335.88;;;17.88;100.00
57594;BME280;43423;46.510;6.686;2023-09-18T08:25:49;96333.66;;;17.87;100.00
57594;BME280;43423;46.510;6.686;2023-09-18T08:28:17;96323.97;;;18.20;100.00
57594;BME280;43423;46.510;6.686;2023-09-18T08:30:42;96343.91;;;18.37;100.00
57594;BME280;43423;46.510;6.686;2023-09-18T08:33:15;96342.72;;;18.46;100.00
57594;BME280;43423;46.510;6.686;2023-09-18T08:35:40;96339.63;;;18.36;100.00
57594;BME280;43423;46.510;6.686;2023-09-18T08:38:06;96335.88;;;18.33;100.00
57594;BME280;43423;46.510;6.686;2023-09-18T08:40:35;96339.84;;;18.25;100.00
57594;BME280;43423;46.510;6.686;2023-09-18T08:43:00;96339.59;;;18.09;100.00
57594;BME280;43423;46.510;6.686;2023-09-18T08:45:46;96349.97;;;18.09;100.00
57594;BME280;43423;46.510;6.686;2023-09-18T08:48:13;96355.88;;;18.19;100.00
57594;BME280;43423;46.510;6.686;2023-09-18T08:50:40;96353.09;;;18.32;100.00
57594;BME280;43423;46.510;6.686;2023-09-18T08:53:05;96364.88;;;18.38;100.00
57594;BME280;43423;46.510;6.686;2023-09-18T08:55:33;96355.03;;;18.37;100.00
57594;BME280;43423;46.510;6.686;2023-09-18T08:57:59;96363.78;;;18.14;100.00
57594;BME280;43423;46.510;6.686;2023-09-18T09:00:26;96362.94;;;18.20;100.00
57594;BME280;43423;46.510;6.686;2023-09-18T09:02:51;96368.06;;;18.16;100.00
57594;BME280;43423;46.510;6.686;2023-09-18T09:05:22;96356.94;;;18.29;100.00
57594;BME280;43423;46.510;6.686;2023-09-18T09:07:49;96348.28;;;18.32;100.00
57594;BME280;43423;46.510;6.686;2023-09-18T09:10:16;96351.38;;;18.29;100.00
57594;BME280;43423;46.510;6.686;2023-09-18T09:12:55;96351.88;;;18.14;100.00
57594;BME280;43423;46.510;6.686;2023-09-18T09:15:27;96328.25;;;18.21;100.00
57594;BME280;43423;46.510;6.686;2023-09-18T09:18:06;96302.22;;;18.05;100.00
57594;BME280;43423;46.510;6.686;2023-09-18T09:20:33;96286.56;;;17.89;100.00
57594;BME280;43423;46.510;6.686;2023-09-18T09:23:02;96283.88;;;17.83;100.00
57594;BME280;43423;46.510;6.686;2023-09-18T09:25:30;96277.44;;;17.75;100.00
57594;BME280;43423;46.510;6.686;2023-09-18T09:28:01;96261.41;;;17.81;100.00
57594;BME280;43423;46.510;6.686;2023-09-18T09:30:28;96250.91;;;17.74;100.00
57594;BME280;43423;46.510;6.686;2023-09-18T09:32:55;96242.28;;;17.58;100.00
57594;BME280;43423;46.510;6.686;2023-09-18T09:35:27;96227.47;;;17.37;100.00
57594;BME280;43423;46.510;6.686;2023-09-18T09:37:56;96193.25;;;17.29;100.00
57594;BME280;43423;46.510;6.686;2023-09-18T09:40:23;96213.75;;;17.26;100.00
57594;BME280;43423;46.510;6.686;2023-09-18T09:42:54;96227.53;;;17.18;100.00
57594;BME280;43423;46.510;6.686;2023-09-18T09:45:27;96230.00;;;17.03;100.00
57594;BME280;43423;46.510;6.686;2023-09-18T09:47:55;96249.69;;;17.05;100.00
57594;BME280;43423;46.510;6.686;2023-09-18T09:50:21;96257.22;;;16.91;100.00
57594;BME280;43423;46.510;6.686;2023-09-18T09:52:49;96272.13;;;17.26;100.00
57594;BME280;43423;46.510;6.686;2023-09-18T09:55:33;96239.44;;;17.32;100.00
57594;BME280;43423;46.510;6.686;2023-09-18T09:58:03;96245.81;;;17.27;100.00
57594;BME280;43423;46.510;6.686;2023-09-18T10:00:43;96229.06;;;17.00;100.00
57594;BME280;43423;46.510;6.686;2023-09-18T10:03:17;96216.53;;;17.26;100.00
57594;BME280;43423;46.510;6.686;2023-09-18T10:05:45;96253.72;;;17.23;100.00
57594;BME280;43423;46.510;6.686;2023-09-18T10:08:13;96277.09;;;17.14;100.00
57594;BME280;43423;46.510;6.686;2023-09-18T10:10:45;96279.50;;;17.23;100.00
57594;BME280;43423;46.510;6.686;2023-09-18T10:13:17;96266.97;;;17.49;100.00
57594;BME280;43423;46.510;6.686;2023-09-18T10:15:45;96238.97;;;17.47;100.00
57594;BME280;43423;46.510;6.686;2023-09-18T10:18:26;96269.81;;;17.43;100.00
57594;BME280;43423;46.510;6.686;2023-09-18T10:20:57;96300.28;;;17.17;99.83
57594;BME280;43423;46.510;6.686;2023-09-18T10:26:26;96273.31;;;17.30;100.00
57594;BME280;43423;46.510;6.686;2023-09-18T10:28:55;96299.44;;;17.41;100.00
57594;BME280;43423;46.510;6.686;2023-09-18T10:31:26;96289.28;;;17.43;100.00
57594;BME280;43423;46.510;6.686;2023-09-18T10:33:52;96281.63;;;17.49;96.75
57594;BME280;43423;46.510;6.686;2023-09-18T10:36:19;96268.28;;;17.61;100.00
57594;BME280;43423;46.510;6.686;2023-09-18T10:38:46;96269.25;;;17.64;98.95
57594;BME280;43423;46.510;6.686;2023-09-18T10:41:19;96255.34;;;17.64;97.78
57594;BME280;43423;46.510;6.686;2023-09-18T10:43:45;96268.59;;;17.57;98.93
57594;BME280;43423;46.510;6.686;2023-09-18T10:46:13;96280.16;;;17.62;100.00
57594;BME280;43423;46.510;6.686;2023-09-18T10:48:41;96311.13;;;17.71;100.00
57594;BME280;43423;46.510;6.686;2023-09-18T10:51:09;96328.78;;;17.74;100.00
57594;BME280;43423;46.510;6.686;2023-09-18T10:53:36;96338.88;;;17.39;100.00
57594;BME280;43423;46.510;6.686;2023-09-18T10:56:02;96358.09;;;17.37;100.00
57594;BME280;43423;46.510;6.686;2023-09-18T10:58:33;96391.75;;;17.34;100.00
57594;BME280;43423;46.510;6.686;2023-09-18T11:01:07;96410.44;;;17.52;100.00
57594;BME280;43423;46.510;6.686;2023-09-18T11:03:37;96406.81;;;17.00;100.00
57594;BME280;43423;46.510;6.686;2023-09-18T11:08:32;96405.50;;;17.26;100.00
57594;BME280;43423;46.510;6.686;2023-09-18T11:11:06;96364.78;;;17.47;100.00
57594;BME280;43423;46.510;6.686;2023-09-18T11:13:37;96362.22;;;17.49;100.00
57594;BME280;43423;46.510;6.686;2023-09-18T11:16:17;96362.59;;;17.59;100.00
57594;BME280;43423;46.510;6.686;2023-09-18T11:18:50;96367.41;;;17.58;100.00
57594;BME280;43423;46.510;6.686;2023-09-18T11:21:18;96375.59;;;17.70;100.00
57594;BME280;43423;46.510;6.686;2023-09-18T11:23:58;96367.09;;;17.81;100.00
57594;BME280;43423;46.510;6.686;2023-09-18T11:26:24;96363.03;;;17.82;100.00
57594;BME280;43423;46.510;6.686;2023-09-18T11:28:53;96365.38;;;17.78;100.00
57594;BME280;43423;46.510;6.686;2023-09-18T11:31:19;96324.34;;;17.65;100.00
57594;BME280;43423;46.510;6.686;2023-09-18T11:33:47;96295.88;;;17.59;100.00
57594;BME280;43423;46.510;6.686;2023-09-18T11:36:14;96301.59;;;17.48;100.00
57594;BME280;43423;46.510;6.686;2023-09-18T11:38:57;96284.47;;;17.44;100.00
57594;BME280;43423;46.510;6.686;2023-09-18T11:41:24;96254.22;;;17.40;100.00
57594;BME280;43423;46.510;6.686;2023-09-18T11:43:51;96249.94;;;17.39;100.00
57594;BME280;43423;46.510;6.686;2023-09-18T11:46:19;96238.78;;;17.26;100.00
57594;BME280;43423;46.510;6.686;2023-09-18T11:48:47;96228.16;;;16.73;100.00
57594;BME280;43423;46.510;6.686;2023-09-18T11:51:22;96229.66;;;16.74;100.00
57594;BME280;43423;46.510;6.686;2023-09-18T11:53:51;96223.50;;;17.00;100.00
57594;BME280;43423;46.510;6.686;2023-09-18T11:56:17;96236.81;;;17.21;100.00
57594;BME280;43423;46.510;6.686;2023-09-18T11:58:45;96258.28;;;17.20;100.00
57594;BME280;43423;46.510;6.686;2023-09-18T12:01:11;96265.81;;;17.25;100.00
57594;BME280;43423;46.510;6.686;2023-09-18T12:03:38;96278.00;;;17.22;100.00
57594;BME280;43423;46.510;6.686;2023-09-18T12:06:04;96288.47;;;17.48;100.00
57594;BME280;43423;46.510;6.686;2023-09-18T12:08:30;96281.78;;;17.38;99.63
57594;BME280;43423;46.510;6.686;2023-09-18T12:10:57;96284.78;;;17.21;100.00
57594;BME280;43423;46.510;6.686;2023-09-18T12:13:27;96307.53;;;16.82;100.00
57594;BME280;43423;46.510;6.686;2023-09-18T12:15:59;96297.50;;;16.98;100.00
57594;BME280;43423;46.510;6.686;2023-09-18T12:18:27;96292.25;;;16.94;100.00
57594;BME280;43423;46.510;6.686;2023-09-18T12:20:54;96297.28;;;16.77;100.00
57594;BME280;43423;46.510;6.686;2023-09-18T12:23:21;96292.09;;;16.87;100.00
57594;BME280;43423;46.510;6.686;2023-09-18T12:25:49;96281.34;;;16.96;100.00
57594;BME280;43423;46.510;6.686;2023-09-18T12:28:15;96248.50;;;17.00;100.00
57594;BME280;43423;46.510;6.686;2023-09-18T12:30:43;96275.28;;;16.79;100.00
57594;BME280;43423;46.510;6.686;2023-09-18T12:33:09;96265.72;;;16.74;100.00
57594;BME280;43423;46.510;6.686;2023-09-18T12:35:35;96267.41;;;16.83;100.00
57594;BME280;43423;46.510;6.686;2023-09-18T12:38:01;96254.19;;;16.89;100.00
57594;BME280;43423;46.510;6.686;2023-09-18T12:40:30;96231.22;;;16.89;100.00
57594;BME280;43423;46.510;6.686;2023-09-18T12:42:59;96260.19;;;16.93;100.00
57594;BME280;43423;46.510;6.686;2023-09-18T12:45:29;96263.72;;;16.94;99.77
57594;BME280;43423;46.510;6.686;2023-09-18T12:47:57;96260.88;;;16.99;100.00
57594;BME280;43423;46.510;6.686;2023-09-18T12:50:24;96262.16;;;16.98;97.26
57594;BME280;43423;46.510;6.686;2023-09-18T12:52:50;96261.63;;;17.00;99.34
57594;BME280;43423;46.510;6.686;2023-09-18T12:55:26;96277.09;;;16.95;99.03
57594;BME280;43423;46.510;6.686;2023-09-18T12:57:53;96257.34;;;16.99;99.09
57594;BME280;43423;46.510;6.686;2023-09-18T13:00:20;96255.31;;;16.99;100.00
57594;BME280;43423;46.510;6.686;2023-09-18T13:02:52;96262.81;;;17.05;99.95
57594;BME280;43423;46.510;6.686;2023-09-18T13:05:21;96254.03;;;17.00;97.35